Time;durP1;ratioP1;P1;durP2;ratioP2;P2;SDS_P1;SDS_P2;PMS_P1;PMS_P2;Temp;Humidity;BMP_temperature;BMP_pressure;BME280_temperature;BME280_humidity;BME280_pressure;Samples;Min_cycle;Max_cycle;Signal;HPM_P1;HPM_P2
2022/06/25 00:01:00;;;;;;;0.35;0.35;;;;;;;22.11;53.93;100364.59;5196052;28;20060;-80
2022/06/25 00:03:31;;;;;;;2.55;1.05;;;;;;;22.09;53.81;100372.72;5167843;28;20115;-80
2022/06/25 00:06:08;;;;;;;0.30;0.30;;;;;;;22.12;53.79;100363.63;5134868;28;20073;-80
2022/06/25 00:08:47;;;;;;;0.20;0.20;;;;;;;22.10;54.09;100368.25;5200742;28;20030;-80
2022/06/25 00:14:11;;;;;;;0.80;0.60;;;;;;;22.07;54.41;100368.50;5150028;28;20049;-80
2022/06/25 00:16:41;;;;;;;0.40;0.40;;;;;;;22.01;54.38;100367.16;5182375;28;20072;-80
2022/06/25 00:19:15;;;;;;;0.50;0.50;;;;;;;21.97;54.01;100369.25;5187233;28;20404;-80
2022/06/25 00:21:49;;;;;;;0.20;0.20;;;;;;;21.95;54.15;100378.34;5166566;28;20079;-80
2022/06/25 00:24:20;;;;;;;0.20;0.20;;;;;;;21.93;54.06;100375.81;5163891;28;20117;-79
2022/06/25 00:26:54;;;;;;;0.20;0.20;;;;;;;21.98;54.76;100373.59;5173593;28;20123;-81
2022/06/25 00:29:24;;;;;;;0.30;0.30;;;;;;;21.92;54.53;100384.78;5154109;28;20676;-81
2022/06/25 00:31:55;;;;;;;1.90;0.40;;;;;;;21.92;54.68;100384.78;5163491;28;20049;-81
2022/06/25 00:34:26;;;;;;;0.65;0.65;;;;;;;21.81;57.18;100382.13;5149624;28;20026;-80
2022/06/25 00:36:57;;;;;;;0.28;0.28;;;;;;;21.82;55.22;100383.84;5165513;28;20173;-80
2022/06/25 00:39:27;;;;;;;0.30;0.30;;;;;;;21.84;55.22;100392.56;5155920;28;20034;-81
2022/06/25 00:42:01;;;;;;;0.30;0.30;;;;;;;21.83;55.28;100388.22;5179132;28;20340;-81
2022/06/25 00:44:31;;;;;;;0.43;0.43;;;;;;;21.74;55.42;100391.59;5168661;28;20193;-81
2022/06/25 00:47:08;;;;;;;0.30;0.30;;;;;;;21.76;54.92;100387.84;5170823;28;20132;-81
2022/06/25 00:49:41;;;;;;;0.50;0.50;;;;;;;21.72;54.92;100389.06;5172216;28;20038;-81
2022/06/25 00:52:14;;;;;;;0.20;0.20;;;;;;;21.75;55.04;100398.66;5168640;28;20091;-80
2022/06/25 00:54:50;;;;;;;;;;;;;;;21.76;55.08;100395.00;5192296;28;20049;-81
2022/06/25 00:57:25;;;;;;;0.20;0.20;;;;;;;21.70;55.32;100396.34;5194937;28;19935;-81
2022/06/25 00:59:58;;;;;;;0.47;0.47;;;;;;;21.67;54.72;100402.78;5192174;28;20100;-81
2022/06/25 01:02:29;;;;;;;0.50;0.50;;;;;;;21.70;55.17;100405.19;5167500;28;20038;-81
2022/06/25 01:05:00;;;;;;;0.28;0.28;;;;;;;21.55;55.35;100401.03;5168611;28;20258;-81
2022/06/25 01:07:30;;;;;;;0.43;0.43;;;;;;;21.59;54.72;100397.19;5169603;28;20033;-81
2022/06/25 01:10:13;;;;;;;0.20;0.20;;;;;;;21.56;54.48;100400.06;5165876;28;20173;-80
2022/06/25 01:12:51;;;;;;;0.20;0.20;;;;;;;21.52;56.00;100407.47;5166648;28;20033;-81
2022/06/25 01:15:22;;;;;;;0.50;0.50;;;;;;;21.50;54.62;100405.88;5162615;28;20045;-81
2022/06/25 01:17:53;;;;;;;0.20;0.20;;;;;;;21.49;54.93;100415.69;5168863;28;20052;-81
2022/06/25 01:20:29;;;;;;;2.58;0.80;;;;;;;21.49;54.48;100422.88;5168989;28;20137;-80
2022/06/25 01:23:00;;;;;;;0.40;0.40;;;;;;;21.51;54.75;100423.59;5169042;28;20552;-80
2022/06/25 01:25:38;;;;;;;0.20;0.20;;;;;;;21.44;54.56;100433.06;5176754;28;20056;-80
2022/06/25 01:28:09;;;;;;;0.40;0.40;;;;;;;21.43;54.55;100434.03;5191318;28;20072;-80
2022/06/25 01:30:40;;;;;;;0.30;0.30;;;;;;;21.41;54.44;100443.97;5178337;28;20521;-80
2022/06/25 01:33:11;;;;;;;0.28;0.28;;;;;;;21.37;54.44;100433.53;5191737;28;20047;-80
2022/06/25 01:35:44;;;;;;;0.40;0.40;;;;;;;21.37;54.48;100443.34;5174950;28;20045;-80
2022/06/25 01:38:15;;;;;;;0.30;0.30;;;;;;;21.34;54.25;100444.44;5171951;28;20021;-80
2022/06/25 01:40:45;;;;;;;0.40;0.40;;;;;;;21.34;54.37;100444.44;5185702;28;20052;-80
2022/06/25 01:43:16;;;;;;;0.40;0.40;;;;;;;21.29;54.34;100443.94;5169984;28;20029;-80
2022/06/25 01:45:46;;;;;;;0.30;0.30;;;;;;;21.29;54.50;100443.94;5184524;28;20041;-81
2022/06/25 01:48:17;;;;;;;0.25;0.25;;;;;;;21.26;54.44;100451.31;5171828;28;20029;-80
2022/06/25 01:50:48;;;;;;;0.40;0.40;;;;;;;21.24;54.30;100454.13;5179611;28;20103;-80
2022/06/25 01:53:19;;;;;;;0.50;0.50;;;;;;;21.21;54.52;100452.53;5172586;28;20051;-80
2022/06/25 01:55:49;;;;;;;0.20;0.20;;;;;;;21.21;54.40;100455.22;5165404;28;20075;-80
2022/06/25 01:58:23;;;;;;;0.30;0.30;;;;;;;21.19;54.29;100458.97;5171586;28;20060;-80
2022/06/25 02:00:58;;;;;;;1.30;0.35;;;;;;;21.16;54.48;100459.19;5168168;28;20049;-79
2022/06/25 02:03:31;;;;;;;0.75;0.75;;;;;;;21.14;54.43;100463.78;5185603;28;20092;-80
2022/06/25 02:06:02;;;;;;;0.68;0.68;;;;;;;21.11;54.34;100462.19;5153933;28;20041;-80
2022/06/25 02:08:36;;;;;;;0.20;0.20;;;;;;;21.10;54.32;100463.16;5149706;28;20452;-80
2022/06/25 02:11:11;;;;;;;0.65;0.65;;;;;;;21.10;54.64;100462.31;5208952;28;20046;-80
2022/06/25 02:13:50;;;;;;;0.95;0.40;;;;;;;21.07;54.49;100472.25;5197918;28;20036;-80
2022/06/25 02:16:21;;;;;;;0.70;0.55;;;;;;;21.02;54.56;100461.09;5156647;28;20033;-80
2022/06/25 02:18:52;;;;;;;0.45;0.45;;;;;;;21.02;54.59;100469.09;5151550;28;20045;-80
2022/06/25 02:21:22;;;;;;;0.20;0.20;;;;;;;20.99;54.48;100471.97;5148333;28;20072;-80
2022/06/25 02:23:53;;;;;;;0.50;0.50;;;;;;;20.96;54.83;100472.19;5169877;28;20096;-80
2022/06/25 02:26:23;;;;;;;0.73;0.73;;;;;;;20.96;54.69;100472.19;5177145;28;20127;-82
2022/06/25 02:28:54;;;;;;;0.20;0.20;;;;;;;20.93;54.63;100477.78;5187689;28;20021;-80
2022/06/25 02:31:25;;;;;;;0.75;0.75;;;;;;;20.92;54.63;100478.75;5175306;28;20060;-80
2022/06/25 02:33:55;;;;;;;0.20;0.20;;;;;;;20.88;54.70;100479.91;5186474;28;20100;-81
2022/06/25 02:36:26;;;;;;;0.73;0.73;;;;;;;20.83;54.73;100480.25;5200760;28;20053;-81
2022/06/25 02:38:57;;;;;;;0.63;0.63;;;;;;;20.83;54.84;100477.59;5191903;28;20111;-80
2022/06/25 02:41:27;;;;;;;1.38;0.88;;;;;;;20.81;54.66;100490.22;5212995;28;20025;-81
2022/06/25 02:43:58;;;;;;;0.50;0.50;;;;;;;20.79;55.03;100485.94;5212873;28;20030;-79
2022/06/25 02:46:36;;;;;;;0.20;0.20;;;;;;;20.74;55.15;100486.31;5145767;28;20061;-80
2022/06/25 02:49:10;;;;;;;0.40;0.40;;;;;;;20.73;55.13;100492.59;5148015;28;20100;-80
2022/06/25 02:51:41;;;;;;;0.30;0.30;;;;;;;20.73;54.94;100496.09;5164221;28;20076;-80
2022/06/25 02:54:11;;;;;;;0.30;0.30;;;;;;;20.69;54.96;100494.59;5178797;28;20056;-80
2022/06/25 02:59:31;;;;;;;1.85;0.85;;;;;;;20.64;55.08;100496.75;5164294;28;20594;-80
2022/06/25 03:02:02;;;;;;;0.40;0.40;;;;;;;20.61;55.34;100496.97;5157466;28;20053;-80
2022/06/25 03:04:33;;;;;;;0.25;0.25;;;;;;;20.56;55.11;100502.66;5170985;28;20570;-80
2022/06/25 03:07:04;;;;;;;0.60;0.60;;;;;;;20.52;55.32;100495.81;5186954;28;20442;-80
2022/06/25 03:09:36;;;;;;;0.80;0.50;;;;;;;20.51;55.07;100512.78;5174513;28;20492;-80
2022/06/25 03:12:12;;;;;;;0.98;0.63;;;;;;;20.49;55.14;100503.19;5186226;28;20079;-80
2022/06/25 03:14:43;;;;;;;0.20;0.20;;;;;;;20.48;55.36;100513.00;5184117;28;20044;-80
2022/06/25 03:17:13;;;;;;;0.20;0.20;;;;;;;20.47;55.35;100518.44;5172047;28;20029;-80
2022/06/25 03:19:44;;;;;;;0.40;0.40;;;;;;;20.42;55.32;100514.31;5174460;28;20039;-80
2022/06/25 03:22:14;;;;;;;0.30;0.30;;;;;;;20.38;55.35;100517.28;5159529;28;20176;-80
2022/06/25 03:24:50;;;;;;;0.30;0.30;;;;;;;20.39;55.54;100516.34;5161230;28;20080;-80
2022/06/25 03:27:24;;;;;;;0.30;0.30;;;;;;;20.36;55.44;100516.53;5163990;28;20040;-80
2022/06/25 03:29:54;;;;;;;0.30;0.30;;;;;;;20.31;55.49;100521.38;5162416;28;20518;-81
2022/06/25 03:32:25;;;;;;;0.35;0.35;;;;;;;20.28;55.45;100514.44;5160532;28;20028;-80
2022/06/25 03:34:58;;;;;;;1.48;1.10;;;;;;;20.27;55.74;100528.72;5163817;28;20451;-80
2022/06/25 03:37:37;;;;;;;0.65;0.63;;;;;;;20.23;55.66;100524.56;5174171;28;20124;-80
2022/06/25 03:40:09;;;;;;;0.28;0.28;;;;;;;20.21;55.35;100527.34;5185003;28;20085;-80
2022/06/25 03:42:39;;;;;;;0.35;0.35;;;;;;;20.18;55.54;100524.88;5165561;28;20452;-81
2022/06/25 03:45:10;;;;;;;0.95;0.82;;;;;;;20.16;55.64;100529.50;5181268;28;20045;-81
2022/06/25 03:47:41;;;;;;;0.40;0.40;;;;;;;20.15;55.81;100524.25;5149698;28;21170;-80
2022/06/25 03:50:12;;;;;;;0.30;0.30;;;;;;;20.12;55.69;100531.50;5153341;28;20037;-81
2022/06/25 03:52:43;;;;;;;0.40;0.40;;;;;;;20.11;55.85;100528.94;5185291;28;20112;-82
2022/06/25 03:55:14;;;;;;;0.57;0.43;;;;;;;20.09;56.11;100523.75;5164631;28;20563;-81
2022/06/25 03:57:45;;;;;;;2.05;0.28;;;;;;;20.07;55.94;100524.81;5182670;28;20416;-80
2022/06/25 04:00:17;;;;;;;0.10;0.10;;;;;;;20.05;56.13;100530.22;5184738;28;20490;-81
2022/06/25 04:02:48;;;;;;;0.20;0.20;;;;;;;20.03;56.30;100534.81;5178965;28;20045;-81
2022/06/25 04:05:21;;;;;;;1.38;1.23;;;;;;;20.03;56.04;100537.50;5198282;28;20427;-81
2022/06/25 04:07:52;;;;;;;0.35;0.35;;;;;;;20.03;56.29;100542.81;5186132;28;20089;-81
2022/06/25 04:10:23;;;;;;;15.32;0.93;;;;;;;20.02;56.24;100543.78;5164994;28;20506;-80
2022/06/25 04:12:53;;;;;;;0.20;0.20;;;;;;;20.01;56.35;100555.38;5163612;28;20107;-82
2022/06/25 04:15:24;;;;;;;1.95;0.95;;;;;;;19.99;56.96;100546.63;5164032;28;20228;-82
2022/06/25 04:17:58;;;;;;;0.40;0.40;;;;;;;19.98;56.71;100539.59;5167581;28;20072;-82
2022/06/25 04:20:28;;;;;;;0.20;0.20;;;;;;;20.02;56.48;100545.56;5175537;28;20050;-82
2022/06/25 04:22:59;;;;;;;0.40;0.40;;;;;;;20.01;56.43;100542.06;5167328;28;20029;-81
2022/06/25 04:25:30;;;;;;;0.30;0.30;;;;;;;20.01;56.50;100550.06;5155924;28;20314;-82
2022/06/25 04:30:56;;;;;;;0.28;0.28;;;;;;;20.01;56.82;100544.72;5176498;28;20041;-81
2022/06/25 04:33:46;;;;;;;0.60;0.60;;;;;;;20.00;56.69;100543.03;5173917;28;20037;-82
2022/06/25 04:36:17;;;;;;;0.35;0.35;;;;;;;20.00;56.68;100542.19;5178958;28;20117;-82
2022/06/25 04:38:49;;;;;;;0.20;0.20;;;;;;;19.99;56.94;100551.97;5179842;28;20037;-81
2022/06/25 04:41:19;;;;;;;0.38;0.38;;;;;;;20.01;57.02;100547.38;5170829;28;20056;-81
2022/06/25 04:43:50;;;;;;;0.30;0.30;;;;;;;20.01;57.37;100539.41;5185638;28;20203;-81
2022/06/25 04:46:20;;;;;;;0.20;0.20;;;;;;;20.00;57.21;100547.50;5181118;28;20120;-81
2022/06/25 04:48:51;;;;;;;0.85;0.85;;;;;;;20.00;57.09;100545.69;5157632;28;20399;-81
2022/06/25 04:51:22;;;;;;;0.20;0.20;;;;;;;20.03;57.12;100549.94;5160419;28;20140;-81
2022/06/25 04:53:55;;;;;;;0.25;0.25;;;;;;;20.04;57.36;100549.81;5165784;28;20420;-81
2022/06/25 04:56:28;;;;;;;0.35;0.35;;;;;;;20.06;57.66;100552.41;5178751;28;20477;-81
2022/06/25 04:58:59;;;;;;;0.30;0.30;;;;;;;20.08;57.86;100561.13;5184167;28;20045;-81
2022/06/25 05:01:29;;;;;;;0.70;0.70;;;;;;;20.07;57.32;100570.91;5182863;28;20053;-81
2022/06/25 05:04:00;;;;;;;0.30;0.30;;;;;;;20.08;57.47;100571.78;5187057;28;20041;-81
2022/06/25 05:06:30;;;;;;;0.50;0.50;;;;;;;20.11;57.89;100566.22;5161498;28;20438;-81
2022/06/25 05:09:04;;;;;;;0.38;0.38;;;;;;;20.08;57.48;100564.63;5161137;28;20079;-81
2022/06/25 05:11:36;;;;;;;0.40;0.40;;;;;;;20.11;57.42;100572.44;5152242;28;20258;-81
2022/06/25 05:14:06;;;;;;;0.30;0.30;;;;;;;20.10;57.75;100564.53;5184277;28;20486;-81
2022/06/25 05:16:37;;;;;;;0.40;0.40;;;;;;;20.12;57.60;100563.44;5187092;28;20064;-80
2022/06/25 05:19:08;;;;;;;0.50;0.50;;;;;;;20.15;57.43;100566.88;5169930;28;20557;-80
2022/06/25 05:21:38;;;;;;;0.25;0.25;;;;;;;20.15;57.14;100566.88;5154780;28;20034;-80
2022/06/25 05:24:09;;;;;;;0.40;0.40;;;;;;;20.17;57.70;100568.47;5149047;28;20738;-80
2022/06/25 05:26:43;;;;;;;0.60;0.60;;;;;;;20.18;57.72;100566.66;5164442;28;20044;-80
2022/06/25 05:29:13;;;;;;;0.50;0.50;;;;;;;20.20;57.74;100575.41;5166698;28;20021;-80
2022/06/25 05:31:44;;;;;;;0.40;0.40;;;;;;;20.22;58.25;100563.69;5198463;28;20036;-80
2022/06/25 05:34:14;;;;;;;0.20;0.20;;;;;;;20.26;57.91;100574.97;5171779;28;20033;-80
2022/06/25 05:36:45;;;;;;;0.17;0.17;;;;;;;20.26;57.95;100574.97;5185395;28;20221;-80
2022/06/25 05:39:16;;;;;;;0.20;0.20;;;;;;;20.28;57.75;100583.72;5209394;28;20037;-80
2022/06/25 05:41:46;;;;;;;0.60;0.60;;;;;;;20.28;57.82;100583.72;5171150;28;20053;-80
2022/06/25 05:44:17;;;;;;;0.30;0.30;;;;;;;20.29;58.45;100590.72;5187298;28;20109;-80
2022/06/25 05:46:50;;;;;;;0.30;0.30;;;;;;;20.33;58.33;100591.38;5168806;28;20044;-80
2022/06/25 05:49:21;;;;;;;;;;;;;;;20.34;58.04;100591.25;5175052;28;20073;-80
2022/06/25 05:51:51;;;;;;;1.23;1.05;;;;;;;20.36;57.89;100586.69;5162014;28;19952;-80
2022/06/25 05:54:25;;;;;;;0.20;0.20;;;;;;;20.37;57.93;100593.69;5156586;28;20124;-80
2022/06/25 05:56:55;;;;;;;0.20;0.20;;;;;;;20.37;59.50;100587.53;5190345;28;20033;-81
2022/06/25 05:59:26;;;;;;;0.35;0.35;;;;;;;20.40;58.04;100592.66;5186066;28;20034;-79
2022/06/25 06:01:56;;;;;;;4.25;0.57;;;;;;;20.42;58.42;100596.03;5179780;28;20093;-79
2022/06/25 06:04:27;;;;;;;0.43;0.43;;;;;;;20.45;58.08;100604.66;5202160;28;20056;-80
2022/06/25 06:06:59;;;;;;;1.95;0.85;;;;;;;20.48;58.06;100600.09;5192048;28;20533;-80
2022/06/25 06:09:32;;;;;;;0.35;0.35;;;;;;;20.47;58.09;100601.03;5171789;28;20029;-79
2022/06/25 06:12:02;;;;;;;7.80;0.40;;;;;;;20.48;57.94;100600.94;5188336;28;20116;-79
2022/06/25 06:14:36;;;;;;;0.35;0.35;;;;;;;20.51;58.03;100603.38;5170112;28;20117;-78
2022/06/25 06:17:09;;;;;;;0.20;0.20;;;;;;;20.53;58.06;100603.28;5188506;28;20056;-81
2022/06/25 06:19:40;;;;;;;0.35;0.35;;;;;;;20.55;58.58;100604.00;5182212;28;20021;-79
2022/06/25 06:22:11;;;;;;;0.43;0.43;;;;;;;20.59;57.85;100606.34;5185036;28;20038;-80
2022/06/25 06:24:41;;;;;;;0.50;0.50;;;;;;;20.60;57.85;100596.56;5168889;28;20041;-79
2022/06/25 06:27:12;;;;;;;0.70;0.70;;;;;;;20.64;58.04;100606.03;5171568;28;20056;-79
2022/06/25 06:29:42;;;;;;;0.47;0.40;;;;;;;20.56;59.06;100614.59;5164983;28;20025;-80
2022/06/25 06:32:13;;;;;;;0.30;0.30;;;;;;;20.52;59.51;100613.09;5181007;28;20033;-80
2022/06/25 06:34:44;;;;;;;0.20;0.20;;;;;;;20.53;59.68;100616.63;5201156;28;20032;-79
2022/06/25 06:37:16;;;;;;;0.30;0.30;;;;;;;20.56;59.66;100619.03;5174767;28;20652;-86
2022/06/25 06:39:47;;;;;;;0.45;0.45;;;;;;;20.52;59.22;100612.25;5169886;28;20075;-81
2022/06/25 06:42:21;;;;;;;0.30;0.30;;;;;;;20.43;58.97;100613.72;5168428;28;20053;-82
2022/06/25 06:44:55;;;;;;;0.20;0.20;;;;;;;20.43;58.93;100617.25;5160485;28;20580;-82
2022/06/25 06:47:25;;;;;;;0.20;0.20;;;;;;;20.51;58.36;100615.88;5189795;28;20064;-82
2022/06/25 06:49:56;;;;;;;0.30;0.30;;;;;;;20.50;58.67;100617.66;5171760;28;20417;-83
2022/06/25 06:52:26;;;;;;;0.20;0.20;;;;;;;20.47;58.48;100620.56;5205729;28;20026;-82
2022/06/25 06:54:59;;;;;;;0.30;0.30;;;;;;;20.38;59.21;100622.03;5185989;28;20041;-82
2022/06/25 06:57:34;;;;;;;1.20;1.10;;;;;;;20.39;58.77;100622.91;5174421;28;20086;-81
2022/06/25 07:00:17;;;;;;;0.32;0.32;;;;;;;20.41;57.98;100623.66;5172101;28;20124;-84
2022/06/25 07:02:48;;;;;;;;;;;;;;;20.44;57.63;100621.63;5200929;28;20017;-85
2022/06/25 07:05:19;;;;;;;1.65;0.40;;;;;;;20.45;57.87;100618.00;5184867;28;19925;-82
2022/06/25 07:07:50;;;;;;;0.63;0.50;;;;;;;20.49;57.88;100625.78;5174258;28;20131;-86
2022/06/25 07:10:21;;;;;;;0.20;0.20;;;;;;;20.56;57.81;100621.72;5198872;28;20052;-82
2022/06/25 07:12:52;;;;;;;0.30;0.30;;;;;;;20.58;57.39;100622.47;5181398;28;20064;-81
2022/06/25 07:15:26;;;;;;;1.30;0.65;;;;;;;20.65;57.13;100621.06;5152795;28;20080;-86
2022/06/25 07:17:59;;;;;;;0.20;0.20;;;;;;;20.60;57.35;100623.22;5154762;28;20025;-85
2022/06/25 07:20:35;;;;;;;1.10;0.73;;;;;;;20.57;57.61;100620.75;5185880;28;20053;-86
2022/06/25 07:23:06;;;;;;;0.22;0.22;;;;;;;20.60;57.46;100620.56;5194499;28;20552;-83
2022/06/25 07:25:39;;;;;;;0.10;0.10;;;;;;;20.63;57.51;100625.66;5184720;28;20109;-82
2022/06/25 07:28:12;;;;;;;;;;;;;;;20.67;57.58;100626.28;5177179;28;20042;-84
2022/06/25 07:30:43;;;;;;;0.20;0.20;;;;;;;20.71;56.19;100620.63;5163994;28;19928;-83
2022/06/25 07:33:13;;;;;;;0.20;0.20;;;;;;;20.74;55.73;100627.59;5174780;28;20026;-84
2022/06/25 07:35:44;;;;;;;0.20;0.20;;;;;;;20.71;56.15;100623.28;5177056;28;20608;-81
2022/06/25 07:38:14;;;;;;;0.30;0.30;;;;;;;20.73;55.99;100624.06;5169720;28;20041;-81
2022/06/25 07:40:45;;;;;;;0.10;0.10;;;;;;;20.79;55.99;100625.44;5175775;28;20520;-81
2022/06/25 07:43:16;;;;;;;0.20;0.20;;;;;;;20.75;56.27;100621.28;5172225;28;20053;-80
2022/06/25 07:45:49;;;;;;;0.20;0.20;;;;;;;20.79;56.60;100625.44;5194335;28;20396;-83
2022/06/25 07:48:21;;;;;;;0.20;0.20;;;;;;;20.79;56.15;100620.13;5196946;28;20043;-82
2022/06/25 07:53:53;;;;;;;0.20;0.20;;;;;;;20.82;56.70;100630.56;5193856;28;20100;-81
2022/06/25 07:56:25;;;;;;;0.20;0.20;;;;;;;20.88;56.68;100627.44;5160567;28;20044;-82
2022/06/25 07:58:56;;;;;;;0.20;0.20;;;;;;;20.92;56.58;100623.59;5170715;28;20516;-82
2022/06/25 08:01:27;;;;;;;0.65;0.40;;;;;;;20.94;57.07;100623.50;5161961;28;20161;-82
2022/06/25 08:03:58;;;;;;;0.70;0.65;;;;;;;20.92;56.46;100625.41;5191105;28;20017;-82
2022/06/25 08:06:34;;;;;;;0.20;0.20;;;;;;;20.98;55.98;100624.97;5178189;28;20053;-82
2022/06/25 08:09:05;;;;;;;0.20;0.20;;;;;;;20.98;56.18;100624.97;5193178;28;20029;-84
2022/06/25 08:11:39;;;;;;;0.20;0.20;;;;;;;21.01;55.74;100624.75;5183435;28;20033;-83
2022/06/25 08:14:09;;;;;;;0.30;0.30;;;;;;;21.04;55.56;100629.84;5194693;28;20096;-82
2022/06/25 08:16:40;;;;;;;0.35;0.35;;;;;;;21.02;55.62;100625.59;5174329;28;20041;-82
2022/06/25 08:19:10;;;;;;;0.20;0.20;;;;;;;21.06;56.16;100627.09;5179973;28;20116;-81
2022/06/25 08:21:41;;;;;;;0.20;0.20;;;;;;;21.08;56.18;100622.47;5185517;28;20033;-80
2022/06/25 08:24:14;;;;;;;0.20;0.20;;;;;;;21.15;55.99;100626.41;5205503;28;20649;-80
2022/06/25 08:26:48;;;;;;;0.20;0.20;;;;;;;21.16;55.74;100620.09;5166895;28;20044;-80
2022/06/25 08:29:18;;;;;;;0.13;0.13;;;;;;;21.16;55.28;100632.59;5185739;28;20039;-80
2022/06/25 08:31:50;;;;;;;0.32;0.32;;;;;;;21.19;56.01;100622.53;5183386;28;20045;-80
2022/06/25 08:34:21;;;;;;;0.57;0.50;;;;;;;21.23;56.06;100629.38;5168397;28;20486;-81
2022/06/25 08:36:51;;;;;;;0.20;0.20;;;;;;;21.26;55.41;100632.75;5168068;28;20041;-81
2022/06/25 08:39:22;;;;;;;0.43;0.43;;;;;;;21.29;55.98;100627.19;5184688;28;20025;-78
2022/06/25 08:42:00;;;;;;;0.88;0.40;;;;;;;21.29;55.56;100630.72;5186288;28;20076;-81
2022/06/25 08:44:31;;;;;;;0.20;0.20;;;;;;;21.37;55.36;100627.50;5188168;28;20029;-82
2022/06/25 08:47:02;;;;;;;0.20;0.20;;;;;;;21.36;55.64;100625.78;5186384;28;20060;-81
2022/06/25 08:49:34;;;;;;;0.90;0.68;;;;;;;21.43;55.29;100621.69;5170912;28;20037;-82
2022/06/25 08:52:07;;;;;;;0.75;0.73;;;;;;;21.50;55.65;100614.09;5151572;28;20282;-83
2022/06/25 08:54:39;;;;;;;;;;;;;;;21.53;55.32;100613.84;5170189;28;20061;-83
2022/06/25 08:57:12;;;;;;;0.45;0.45;;;;;;;21.59;55.09;100616.09;5163684;28;19952;-82
2022/06/25 08:59:45;;;;;;;0.20;0.20;;;;;;;21.66;55.03;100619.13;5177385;28;20033;-83
2022/06/25 09:02:16;;;;;;;0.45;0.45;;;;;;;21.65;54.86;100612.94;5171773;28;20029;-82
2022/06/25 09:04:47;;;;;;;0.20;0.20;;;;;;;21.65;54.87;100607.63;5171025;28;20026;-84
2022/06/25 09:07:20;;;;;;;0.28;0.28;;;;;;;21.78;54.99;100614.69;5154495;28;20033;-83
2022/06/25 09:09:51;;;;;;;0.25;0.25;;;;;;;21.83;54.93;100615.19;5177701;28;20035;-83
2022/06/25 09:12:22;;;;;;;1.75;0.77;;;;;;;21.88;54.94;100615.69;5173805;28;20064;-82
2022/06/25 09:14:53;;;;;;;0.73;0.73;;;;;;;21.87;53.79;100611.31;5179789;28;20108;-83
2022/06/25 09:17:49;;;;;;;1.48;0.85;;;;;;;21.87;52.41;100607.78;5187781;28;20045;-81
2022/06/25 09:20:25;;;;;;;0.30;0.30;;;;;;;21.89;52.61;100614.72;5141552;28;20058;-82
2022/06/25 09:23:09;;;;;;;0.30;0.30;;;;;;;21.93;51.46;100613.53;5178492;28;20025;-83
2022/06/25 09:26:12;;;;;;;0.85;0.30;;;;;;;21.95;52.50;100613.41;5162834;28;20120;-84
2022/06/25 09:28:46;;;;;;;0.20;0.20;;;;;;;21.93;51.48;100600.16;5186409;28;20060;-82
2022/06/25 09:31:34;;;;;;;0.20;0.20;;;;;;;21.96;52.37;100609.75;5170161;28;20072;-82
2022/06/25 09:34:07;;;;;;;0.43;0.43;;;;;;;22.03;51.24;100605.66;5205700;28;20036;-81
2022/06/25 09:36:38;;;;;;;0.30;0.30;;;;;;;22.02;50.33;100610.13;5170794;28;20049;-82
2022/06/25 09:39:08;;;;;;;0.20;0.20;;;;;;;21.99;50.13;100601.50;5205829;28;20044;-81
2022/06/25 09:41:49;;;;;;;0.22;0.22;;;;;;;22.02;50.69;100599.44;5171447;28;20301;-81
2022/06/25 09:44:21;;;;;;;0.20;0.20;;;;;;;22.10;51.28;100600.69;5157466;28;20037;-85
2022/06/25 09:46:56;;;;;;;0.70;0.70;;;;;;;22.13;50.65;100600.44;5162612;28;20061;-83
2022/06/25 09:49:29;;;;;;;0.50;0.50;;;;;;;22.19;50.93;100599.09;5189966;28;20061;-81
2022/06/25 09:52:04;;;;;;;0.50;0.50;;;;;;;22.27;51.06;100594.84;5196002;28;20299;-83
2022/06/25 09:54:35;;;;;;;0.20;0.20;;;;;;;22.35;51.82;100598.75;5207361;28;20120;-88
2022/06/25 09:57:06;;;;;;;0.25;0.25;;;;;;;22.41;51.19;100598.31;5196239;28;20089;-82
2022/06/25 09:59:39;;;;;;;0.20;0.20;;;;;;;22.42;49.77;100594.66;5204630;28;20029;-82
2022/06/25 10:02:11;;;;;;;0.40;0.40;;;;;;;22.49;50.28;100595.88;5203454;28;20033;-80
2022/06/25 10:04:44;;;;;;;0.57;0.57;;;;;;;22.51;49.68;100599.28;5182121;28;20040;-79
2022/06/25 10:07:16;;;;;;;0.17;0.17;;;;;;;22.55;50.25;100599.88;5171985;28;20041;-82
2022/06/25 10:09:46;;;;;;;0.80;0.73;;;;;;;22.63;50.92;100595.59;5192678;28;20173;-81
2022/06/25 10:12:17;;;;;;;0.30;0.30;;;;;;;22.66;50.71;100593.66;5190862;28;20108;-80
2022/06/25 10:14:50;;;;;;;0.30;0.30;;;;;;;22.63;49.61;100592.94;5188857;28;20032;-85
2022/06/25 10:17:22;;;;;;;0.20;0.20;;;;;;;22.67;48.95;100587.34;5195676;28;20095;-82
2022/06/25 10:19:53;;;;;;;4.90;0.40;;;;;;;22.70;48.74;100582.59;5197363;28;20036;-84
2022/06/25 10:22:24;;;;;;;0.35;0.35;;;;;;;22.71;49.61;100588.78;5201391;28;20035;-84
2022/06/25 10:24:57;;;;;;;3.53;1.20;;;;;;;22.80;50.06;100588.06;5190667;28;20063;-80
2022/06/25 10:27:28;;;;;;;0.43;0.43;;;;;;;22.90;50.48;100589.00;5199163;28;20029;-82
2022/06/25 10:30:01;;;;;;;0.45;0.45;;;;;;;22.94;51.03;100585.09;5196342;28;20218;-82
2022/06/25 10:32:34;;;;;;;;;;;;;;;23.02;51.03;100581.81;5222459;28;20204;-84
2022/06/25 10:35:26;;;;;;;0.20;0.20;;;;;;;23.15;49.62;100570.94;5208680;28;19920;-81
2022/06/25 10:38:09;;;;;;;0.20;0.20;;;;;;;23.22;47.92;100580.19;5205851;28;20044;-83
2022/06/25 10:43:57;;;;;;;0.45;0.45;;;;;;;23.37;48.64;100587.91;5229534;28;20093;-83
2022/06/25 10:46:36;;;;;;;0.20;0.20;;;;;;;23.37;48.29;100588.78;5215934;28;20040;-82
2022/06/25 10:49:18;;;;;;;0.20;0.20;;;;;;;23.41;47.85;100584.84;5210560;28;20129;-82
2022/06/25 10:51:52;;;;;;;0.20;0.20;;;;;;;23.45;46.99;100582.75;5214077;28;20035;-81
2022/06/25 10:54:22;;;;;;;0.20;0.20;;;;;;;23.45;47.37;100588.13;5194967;28;20444;-83
2022/06/25 10:56:55;;;;;;;2.25;1.15;;;;;;;23.40;46.80;100575.13;5205231;28;20037;-82
2022/06/25 10:59:34;;;;;;;;;;;;;;;23.45;47.51;100581.94;5191497;28;20021;-81
2022/06/25 11:02:12;;;;;;;0.20;0.20;;;;;;;23.47;47.68;100575.47;5216200;28;19943;-81
2022/06/25 11:04:54;;;;;;;0.20;0.20;;;;;;;23.49;46.99;100572.66;5216336;28;20066;-84
2022/06/25 11:07:25;;;;;;;0.20;0.20;;;;;;;23.57;48.10;100583.56;5198419;28;20124;-80
2022/06/25 11:09:59;;;;;;;0.73;0.73;;;;;;;23.57;47.88;100579.06;5185491;28;20028;-80
2022/06/25 11:12:34;;;;;;;0.32;0.32;;;;;;;23.63;47.66;100576.84;5201341;28;20150;-80
2022/06/25 11:15:10;;;;;;;0.20;0.20;;;;;;;23.63;47.60;100579.50;5199554;28;20792;-82
2022/06/25 11:17:40;;;;;;;0.20;0.20;;;;;;;23.67;48.04;100572.94;5205161;28;20119;-80
2022/06/25 11:20:13;;;;;;;0.28;0.28;;;;;;;23.69;47.50;100571.81;5189415;28;20037;-84
2022/06/25 11:22:49;;;;;;;0.20;0.20;;;;;;;23.74;48.14;100582.13;5192539;28;20040;-84
2022/06/25 11:31:04;;;;;;;0.30;0.30;;;;;;;23.85;47.86;100579.38;5190999;28;20429;-80
2022/06/25 11:33:35;;;;;;;0.40;0.40;;;;;;;23.92;47.15;100578.88;5189179;28;20032;-80
2022/06/25 11:36:10;;;;;;;0.30;0.30;;;;;;;23.89;46.52;100579.97;5211453;28;20545;-82
2022/06/25 11:38:43;;;;;;;0.20;0.20;;;;;;;23.89;46.42;100569.25;5181465;28;20066;-80
2022/06/25 11:41:20;;;;;;;;;;;;;;;23.86;45.75;100590.97;5168233;28;20036;-81
2022/06/25 11:43:50;;;;;;;0.28;0.28;;;;;;;23.95;47.18;100586.66;5224684;28;19924;-80
2022/06/25 11:46:22;;;;;;;1.85;0.57;;;;;;;23.99;46.35;100585.44;5207166;28;20608;-81
2022/06/25 11:48:52;;;;;;;0.20;0.20;;;;;;;23.98;45.88;100589.09;5186001;28;20063;-79
2022/06/25 11:51:24;;;;;;;0.20;0.20;;;;;;;23.94;45.89;100584.97;5207666;28;20044;-80
2022/06/25 11:54:04;;;;;;;0.33;0.33;;;;;;;24.06;46.78;100589.28;5208009;28;20033;-82
2022/06/25 11:56:45;;;;;;;0.40;0.32;;;;;;;24.12;47.41;100586.06;5183549;28;20048;-85
2022/06/25 11:59:27;;;;;;;0.20;0.20;;;;;;;24.17;47.21;100583.81;5188690;28;20124;-82
2022/06/25 12:02:03;;;;;;;0.20;0.20;;;;;;;24.28;46.92;100596.31;5171473;28;20036;-83
2022/06/25 12:04:53;;;;;;;0.10;0.10;;;;;;;24.28;45.37;100585.56;5201861;28;20063;-81
2022/06/25 12:07:29;;;;;;;0.20;0.20;;;;;;;24.40;46.66;100583.66;5191861;28;20145;-84
2022/06/25 12:10:02;;;;;;;0.55;0.55;;;;;;;24.51;47.06;100590.75;5200915;28;20036;-84
2022/06/25 12:12:34;;;;;;;0.30;0.30;;;;;;;24.50;46.30;100584.50;5189978;28;20400;-85